Salt Lake City, Utah
Traffic Map
Current Weather Conditions
Salt Lake City, Utah
Clear
Clear
42°
Feels Like: 42°
Wind Chill: 42° Ceiling: Unl
Heat Index: 42° Visibility: 10mi
Dew Point: 28° Wind: 3mph
Humidity: 58% Direction: 230° (SW)
Pressure: 30.2in Gusts: 0mph
Raw Report DataKSLC 300853Z 23003KT 10SM CLR 06/M02 A3020 RMK AO2 SLP204 T00561022 51003 $
Traffic Incident Summary
Active as of:
Severity:
Category:
InformationThere was an issue retrieving the traffic information for this location. Please try a different location or try again shortly.
Advertisements
Track Severe Weather on mobile